Terminal Aerodrome Forecast
Issued by NWS

Home | Current Version | Previous Version | Text Only | Print | Product List | Glossary On
Versions: 1 2 3 4 5 6 7 8 9 10 11 12 13 14 15 16
605
FTUS41 KPBZ 101128
TAFAGC
TAF
KAGC 101128Z 1012/1112 25007KT 5SM -SHSN SCT015 BKN050
     FM101500 26007KT P6SM BKN100
     FM110600 19003KT P6SM OVC030
     FM110800 18003KT 3SM -SN OVC020=

USA.gov is the U.S. government's official web portal to all federal, state and local government web resources and services.